sensor_id;sensor_type;location;lat;lon;timestamp;pressure;altitude;pressure_sealevel;temperature;humidity
49949;BME280;35840;45.982;8.890;2023-07-31T00:01:32;98133.09;;;22.16;57.67
49949;BME280;35840;45.982;8.890;2023-07-31T00:03:59;98138.59;;;22.21;58.58
49949;BME280;35840;45.982;8.890;2023-07-31T00:06:26;98135.88;;;22.14;57.96
49949;BME280;35840;45.982;8.890;2023-07-31T00:08:53;98137.66;;;21.82;58.89
49949;BME280;35840;45.982;8.890;2023-07-31T00:11:20;98151.06;;;21.88;59.21
49949;BME280;35840;45.982;8.890;2023-07-31T00:13:46;98154.47;;;21.88;58.89
49949;BME280;35840;45.982;8.890;2023-07-31T00:16:13;98153.81;;;21.22;60.17
49949;BME280;35840;45.982;8.890;2023-07-31T00:18:40;98158.91;;;21.15;61.05
49949;BME280;35840;45.982;8.890;2023-07-31T00:21:07;98153.97;;;21.28;59.34
49949;BME280;35840;45.982;8.890;2023-07-31T00:23:33;98165.44;;;21.19;59.62
49949;BME280;35840;45.982;8.890;2023-07-31T00:26:00;98156.31;;;21.07;60.06
49949;BME280;35840;45.982;8.890;2023-07-31T00:28:27;98156.44;;;21.22;60.18
49949;BME280;35840;45.982;8.890;2023-07-31T00:30:55;98146.94;;;21.37;60.15
49949;BME280;35840;45.982;8.890;2023-07-31T00:33:25;98149.19;;;21.65;59.69
49949;BME280;35840;45.982;8.890;2023-07-31T00:35:51;98151.69;;;21.90;59.18
49949;BME280;35840;45.982;8.890;2023-07-31T00:38:18;98152.03;;;21.87;58.12
49949;BME280;35840;45.982;8.890;2023-07-31T00:40:45;98150.16;;;21.64;59.52
49949;BME280;35840;45.982;8.890;2023-07-31T00:43:12;98154.16;;;21.83;59.31
49949;BME280;35840;45.982;8.890;2023-07-31T00:45:40;98148.09;;;21.91;58.83
49949;BME280;35840;45.982;8.890;2023-07-31T00:48:07;98153.13;;;21.44;60.55
49949;BME280;35840;45.982;8.890;2023-07-31T00:50:34;98154.25;;;21.66;60.06
49949;BME280;35840;45.982;8.890;2023-07-31T00:53:01;98148.28;;;21.89;59.12
49949;BME280;35840;45.982;8.890;2023-07-31T00:55:29;98144.78;;;21.57;58.56
49949;BME280;35840;45.982;8.890;2023-07-31T00:57:56;98148.66;;;21.78;58.44
49949;BME280;35840;45.982;8.890;2023-07-31T01:00:23;98155.91;;;21.99;58.36
49949;BME280;35840;45.982;8.890;2023-07-31T01:02:50;98154.25;;;22.06;58.05
49949;BME280;35840;45.982;8.890;2023-07-31T01:05:27;98150.25;;;22.18;57.85
49949;BME280;35840;45.982;8.890;2023-07-31T01:08:08;98156.63;;;22.24;57.64
49949;BME280;35840;45.982;8.890;2023-07-31T01:10:46;98160.59;;;22.12;58.13
49949;BME280;35840;45.982;8.890;2023-07-31T01:13:17;98155.91;;;21.99;58.98
49949;BME280;35840;45.982;8.890;2023-07-31T01:15:44;98156.97;;;21.81;59.35
49949;BME280;35840;45.982;8.890;2023-07-31T01:18:11;98163.94;;;21.41;59.67
49949;BME280;35840;45.982;8.890;2023-07-31T01:20:39;98163.25;;;21.56;58.97
49949;BME280;35840;45.982;8.890;2023-07-31T01:25:57;98161.00;;;21.53;60.13
49949;BME280;35840;45.982;8.890;2023-07-31T01:31:24;98166.47;;;21.74;59.81
49949;BME280;35840;45.982;8.890;2023-07-31T01:33:53;98161.88;;;21.84;60.00
49949;BME280;35840;45.982;8.890;2023-07-31T01:36:22;98160.88;;;20.96;60.94
49949;BME280;35840;45.982;8.890;2023-07-31T01:38:48;98162.66;;;20.63;62.20
49949;BME280;35840;45.982;8.890;2023-07-31T01:41:17;98166.44;;;20.77;61.94
49949;BME280;35840;45.982;8.890;2023-07-31T01:43:45;98158.75;;;21.00;61.33
49949;BME280;35840;45.982;8.890;2023-07-31T01:46:12;98158.09;;;21.06;61.63
49949;BME280;35840;45.982;8.890;2023-07-31T01:48:39;98160.69;;;21.06;60.92
49949;BME280;35840;45.982;8.890;2023-07-31T01:51:06;98164.28;;;21.30;61.21
49949;BME280;35840;45.982;8.890;2023-07-31T01:53:32;98168.84;;;21.53;60.56
49949;BME280;35840;45.982;8.890;2023-07-31T01:55:59;98172.41;;;21.60;59.09
49949;BME280;35840;45.982;8.890;2023-07-31T01:58:26;98170.47;;;21.54;59.90
49949;BME280;35840;45.982;8.890;2023-07-31T02:00:53;98171.28;;;21.54;59.38
49949;BME280;35840;45.982;8.890;2023-07-31T02:03:20;98169.00;;;21.59;59.60
49949;BME280;35840;45.982;8.890;2023-07-31T02:05:48;98170.78;;;21.42;60.31
49949;BME280;35840;45.982;8.890;2023-07-31T02:08:16;98163.91;;;21.49;60.44
49949;BME280;35840;45.982;8.890;2023-07-31T02:10:43;98162.13;;;21.58;59.52
49949;BME280;35840;45.982;8.890;2023-07-31T02:13:10;98164.56;;;21.52;58.60
49949;BME280;35840;45.982;8.890;2023-07-31T02:15:37;98163.59;;;21.36;59.37
49949;BME280;35840;45.982;8.890;2023-07-31T02:18:04;98167.06;;;21.37;59.84
49949;BME280;35840;45.982;8.890;2023-07-31T02:20:34;98162.47;;;21.30;60.33
49949;BME280;35840;45.982;8.890;2023-07-31T02:23:02;98161.81;;;21.37;60.47
49949;BME280;35840;45.982;8.890;2023-07-31T02:25:29;98159.81;;;21.47;59.27
49949;BME280;35840;45.982;8.890;2023-07-31T02:27:56;98164.72;;;21.50;58.96
49949;BME280;35840;45.982;8.890;2023-07-31T02:30:23;98162.28;;;21.57;59.43
49949;BME280;35840;45.982;8.890;2023-07-31T02:32:50;98154.13;;;21.52;60.43
49949;BME280;35840;45.982;8.890;2023-07-31T02:35:16;98158.41;;;21.20;62.13
49949;BME280;35840;45.982;8.890;2023-07-31T02:37:45;98149.75;;;21.19;62.73
49949;BME280;35840;45.982;8.890;2023-07-31T02:40:12;98154.50;;;21.07;61.85
49949;BME280;35840;45.982;8.890;2023-07-31T02:42:39;98149.78;;;21.03;61.19
49949;BME280;35840;45.982;8.890;2023-07-31T02:45:06;98150.56;;;21.20;60.17
49949;BME280;35840;45.982;8.890;2023-07-31T02:47:33;98146.31;;;21.10;61.10
49949;BME280;35840;45.982;8.890;2023-07-31T02:50:04;98147.78;;;21.13;61.29
49949;BME280;35840;45.982;8.890;2023-07-31T02:52:31;98150.22;;;21.31;61.29
49949;BME280;35840;45.982;8.890;2023-07-31T02:54:58;98146.66;;;21.24;59.15
49949;BME280;35840;45.982;8.890;2023-07-31T02:57:25;98146.19;;;20.95;59.20
49949;BME280;35840;45.982;8.890;2023-07-31T02:59:51;98146.66;;;21.15;59.07
49949;BME280;35840;45.982;8.890;2023-07-31T03:02:18;98150.88;;;21.25;60.02
49949;BME280;35840;45.982;8.890;2023-07-31T03:04:45;98148.59;;;21.30;60.24
49949;BME280;35840;45.982;8.890;2023-07-31T03:07:13;98156.25;;;21.40;60.32
49949;BME280;35840;45.982;8.890;2023-07-31T03:09:40;98154.31;;;21.33;59.93
49949;BME280;35840;45.982;8.890;2023-07-31T03:12:08;98155.63;;;21.21;61.53
49949;BME280;35840;45.982;8.890;2023-07-31T03:14:35;98161.19;;;20.93;63.24
49949;BME280;35840;45.982;8.890;2023-07-31T03:17:02;98170.84;;;20.85;62.96
49949;BME280;35840;45.982;8.890;2023-07-31T03:19:32;98158.75;;;21.00;62.46
49949;BME280;35840;45.982;8.890;2023-07-31T03:21:59;98165.75;;;21.16;61.27
49949;BME280;35840;45.982;8.890;2023-07-31T03:24:28;98162.97;;;21.26;58.74
49949;BME280;35840;45.982;8.890;2023-07-31T03:26:55;98157.06;;;21.32;58.45
49949;BME280;35840;45.982;8.890;2023-07-31T03:29:22;98166.19;;;21.44;58.59
49949;BME280;35840;45.982;8.890;2023-07-31T03:31:51;98169.66;;;21.45;59.61
49949;BME280;35840;45.982;8.890;2023-07-31T03:34:18;98165.59;;;21.18;61.83
49949;BME280;35840;45.982;8.890;2023-07-31T03:36:45;98171.81;;;21.17;61.52
49949;BME280;35840;45.982;8.890;2023-07-31T03:39:12;98171.50;;;21.20;60.91
49949;BME280;35840;45.982;8.890;2023-07-31T03:41:38;98170.50;;;20.88;59.66
49949;BME280;35840;45.982;8.890;2023-07-31T03:44:05;98174.09;;;21.03;59.91
49949;BME280;35840;45.982;8.890;2023-07-31T03:46:32;98165.63;;;21.09;60.65
49949;BME280;35840;45.982;8.890;2023-07-31T03:49:00;98169.84;;;21.19;59.91
49949;BME280;35840;45.982;8.890;2023-07-31T03:51:27;98180.78;;;21.30;58.94
49949;BME280;35840;45.982;8.890;2023-07-31T03:53:54;98174.41;;;21.25;58.40
49949;BME280;35840;45.982;8.890;2023-07-31T03:56:20;98174.09;;;21.20;58.12
49949;BME280;35840;45.982;8.890;2023-07-31T03:58:47;98172.75;;;21.32;58.48
49949;BME280;35840;45.982;8.890;2023-07-31T04:01:14;98171.81;;;21.17;58.56
49949;BME280;35840;45.982;8.890;2023-07-31T04:03:41;98185.38;;;20.79;59.80
49949;BME280;35840;45.982;8.890;2023-07-31T04:06:07;98187.78;;;20.56;60.54
49949;BME280;35840;45.982;8.890;2023-07-31T04:08:34;98189.81;;;20.19;61.50
49949;BME280;35840;45.982;8.890;2023-07-31T04:11:01;98185.50;;;20.53;60.43
49949;BME280;35840;45.982;8.890;2023-07-31T04:13:29;98183.28;;;20.83;60.04
49949;BME280;35840;45.982;8.890;2023-07-31T04:15:56;98171.50;;;21.03;60.18
49949;BME280;35840;45.982;8.890;2023-07-31T04:18:24;98180.00;;;20.97;61.35
49949;BME280;35840;45.982;8.890;2023-07-31T04:20:51;98187.75;;;20.47;63.09
49949;BME280;35840;45.982;8.890;2023-07-31T04:23:18;98193.25;;;20.28;64.56
49949;BME280;35840;45.982;8.890;2023-07-31T04:25:45;98198.31;;;20.29;64.48
49949;BME280;35840;45.982;8.890;2023-07-31T04:28:11;98196.25;;;20.50;64.18
49949;BME280;35840;45.982;8.890;2023-07-31T04:30:38;98200.41;;;20.69;63.25
49949;BME280;35840;45.982;8.890;2023-07-31T04:33:05;98197.31;;;20.90;62.00
49949;BME280;35840;45.982;8.890;2023-07-31T04:35:32;98199.75;;;20.83;61.59
49949;BME280;35840;45.982;8.890;2023-07-31T04:37:59;98199.75;;;20.91;61.59
49949;BME280;35840;45.982;8.890;2023-07-31T04:40:26;98208.41;;;20.75;62.14
49949;BME280;35840;45.982;8.890;2023-07-31T04:42:52;98212.03;;;20.40;64.06
49949;BME280;35840;45.982;8.890;2023-07-31T04:45:19;98207.59;;;20.24;64.36
49949;BME280;35840;45.982;8.890;2023-07-31T04:47:46;98209.78;;;20.45;62.53
49949;BME280;35840;45.982;8.890;2023-07-31T04:50:13;98206.09;;;20.64;62.81
49949;BME280;35840;45.982;8.890;2023-07-31T04:52:39;98211.59;;;20.61;61.96
49949;BME280;35840;45.982;8.890;2023-07-31T04:55:06;98203.69;;;20.87;61.85
49949;BME280;35840;45.982;8.890;2023-07-31T04:57:33;98194.84;;;21.05;62.18
49949;BME280;35840;45.982;8.890;2023-07-31T05:00:00;98208.22;;;20.85;63.37
49949;BME280;35840;45.982;8.890;2023-07-31T05:02:26;98210.19;;;20.75;64.45
49949;BME280;35840;45.982;8.890;2023-07-31T05:04:53;98219.50;;;20.77;63.79
49949;BME280;35840;45.982;8.890;2023-07-31T05:07:20;98215.81;;;20.45;62.27
49949;BME280;35840;45.982;8.890;2023-07-31T05:09:47;98214.81;;;20.38;63.28
49949;BME280;35840;45.982;8.890;2023-07-31T05:12:14;98209.81;;;20.61;64.00
49949;BME280;35840;45.982;8.890;2023-07-31T05:14:41;98215.09;;;20.78;63.24
49949;BME280;35840;45.982;8.890;2023-07-31T05:17:08;98217.16;;;20.66;62.84
49949;BME280;35840;45.982;8.890;2023-07-31T05:19:35;98223.44;;;20.81;62.50
49949;BME280;35840;45.982;8.890;2023-07-31T05:22:02;98215.75;;;20.96;62.25
49949;BME280;35840;45.982;8.890;2023-07-31T05:24:28;98215.63;;;20.98;63.33
49949;BME280;35840;45.982;8.890;2023-07-31T05:26:55;98230.28;;;20.74;64.44
49949;BME280;35840;45.982;8.890;2023-07-31T05:29:22;98229.25;;;20.59;65.50
49949;BME280;35840;45.982;8.890;2023-07-31T05:31:48;98231.00;;;20.42;66.34
49949;BME280;35840;45.982;8.890;2023-07-31T05:34:15;98231.19;;;20.57;65.66
49949;BME280;35840;45.982;8.890;2023-07-31T05:36:42;98222.94;;;20.27;66.17
49949;BME280;35840;45.982;8.890;2023-07-31T05:39:08;98216.66;;;20.62;65.56
49949;BME280;35840;45.982;8.890;2023-07-31T05:41:35;98221.47;;;20.84;65.02
49949;BME280;35840;45.982;8.890;2023-07-31T05:44:02;98235.22;;;20.94;64.96
49949;BME280;35840;45.982;8.890;2023-07-31T05:46:29;98233.25;;;20.96;64.80
49949;BME280;35840;45.982;8.890;2023-07-31T05:48:58;98240.44;;;20.94;64.99
49949;BME280;35840;45.982;8.890;2023-07-31T05:51:27;98234.56;;;21.00;65.02
49949;BME280;35840;45.982;8.890;2023-07-31T05:53:54;98235.53;;;20.83;72.22
49949;BME280;35840;45.982;8.890;2023-07-31T05:56:21;98230.97;;;20.93;73.25
49949;BME280;35840;45.982;8.890;2023-07-31T05:58:48;98234.53;;;20.84;72.92
49949;BME280;35840;45.982;8.890;2023-07-31T06:01:17;98235.84;;;20.71;72.98
49949;BME280;35840;45.982;8.890;2023-07-31T06:03:44;98235.09;;;20.61;74.02
49949;BME280;35840;45.982;8.890;2023-07-31T06:06:11;98234.25;;;20.44;74.15
49949;BME280;35840;45.982;8.890;2023-07-31T06:08:38;98240.03;;;20.64;70.92
49949;BME280;35840;45.982;8.890;2023-07-31T06:11:04;98239.47;;;20.87;69.39
49949;BME280;35840;45.982;8.890;2023-07-31T06:13:32;98238.47;;;20.96;69.67
49949;BME280;35840;45.982;8.890;2023-07-31T06:15:59;98245.81;;;21.09;68.37
49949;BME280;35840;45.982;8.890;2023-07-31T06:18:26;98237.66;;;21.28;67.61
49949;BME280;35840;45.982;8.890;2023-07-31T06:20:53;98236.81;;;21.44;66.32
49949;BME280;35840;45.982;8.890;2023-07-31T06:23:20;98252.69;;;21.43;66.50
49949;BME280;35840;45.982;8.890;2023-07-31T06:25:47;98251.88;;;21.34;66.40
49949;BME280;35840;45.982;8.890;2023-07-31T06:28:14;98245.16;;;21.40;67.76
49949;BME280;35840;45.982;8.890;2023-07-31T06:30:41;98252.84;;;21.33;70.84
49949;BME280;35840;45.982;8.890;2023-07-31T06:33:08;98261.66;;;21.40;70.33
49949;BME280;35840;45.982;8.890;2023-07-31T06:35:36;98249.09;;;21.44;66.79
49949;BME280;35840;45.982;8.890;2023-07-31T06:38:02;98241.53;;;21.49;67.11
49949;BME280;35840;45.982;8.890;2023-07-31T06:40:29;98248.09;;;21.70;66.16
49949;BME280;35840;45.982;8.890;2023-07-31T06:42:56;98251.22;;;21.73;65.14
49949;BME280;35840;45.982;8.890;2023-07-31T06:45:23;98251.22;;;21.73;63.72
49949;BME280;35840;45.982;8.890;2023-07-31T06:47:50;98243.03;;;21.68;61.67
49949;BME280;35840;45.982;8.890;2023-07-31T06:50:17;98237.09;;;21.82;62.25
49949;BME280;35840;45.982;8.890;2023-07-31T06:52:44;98244.44;;;21.95;61.55
49949;BME280;35840;45.982;8.890;2023-07-31T06:55:19;98243.28;;;21.98;62.13
49949;BME280;35840;45.982;8.890;2023-07-31T06:57:47;98238.53;;;22.01;61.93
49949;BME280;35840;45.982;8.890;2023-07-31T07:00:15;98238.38;;;22.03;62.69
49949;BME280;35840;45.982;8.890;2023-07-31T07:02:42;98250.59;;;22.11;64.52
49949;BME280;35840;45.982;8.890;2023-07-31T07:05:09;98250.91;;;22.16;64.23
49949;BME280;35840;45.982;8.890;2023-07-31T07:07:36;98227.34;;;22.16;64.30
49949;BME280;35840;45.982;8.890;2023-07-31T07:10:03;98238.59;;;22.25;62.90
49949;BME280;35840;45.982;8.890;2023-07-31T07:12:31;98239.66;;;22.07;62.64
49949;BME280;35840;45.982;8.890;2023-07-31T07:14:59;98247.97;;;22.11;63.49
49949;BME280;35840;45.982;8.890;2023-07-31T07:17:27;98239.38;;;21.94;64.33
49949;BME280;35840;45.982;8.890;2023-07-31T07:19:54;98249.44;;;22.13;61.78
49949;BME280;35840;45.982;8.890;2023-07-31T07:22:22;98245.66;;;22.24;60.65
49949;BME280;35840;45.982;8.890;2023-07-31T07:24:49;98240.78;;;22.13;58.82
49949;BME280;35840;45.982;8.890;2023-07-31T07:27:16;98258.84;;;22.31;59.34
49949;BME280;35840;45.982;8.890;2023-07-31T07:29:43;98251.66;;;22.41;59.40
49949;BME280;35840;45.982;8.890;2023-07-31T07:32:10;98252.28;;;22.43;59.86
49949;BME280;35840;45.982;8.890;2023-07-31T07:34:38;98249.25;;;22.23;57.31
49949;BME280;35840;45.982;8.890;2023-07-31T07:37:05;98245.44;;;22.34;59.72
49949;BME280;35840;45.982;8.890;2023-07-31T07:39:32;98240.53;;;22.39;55.97
49949;BME280;35840;45.982;8.890;2023-07-31T07:41:59;98244.66;;;22.25;58.55
49949;BME280;35840;45.982;8.890;2023-07-31T07:44:25;98234.84;;;22.27;57.63
49949;BME280;35840;45.982;8.890;2023-07-31T07:46:53;98245.31;;;22.27;59.13
49949;BME280;35840;45.982;8.890;2023-07-31T07:49:20;98240.91;;;22.19;56.69
49949;BME280;35840;45.982;8.890;2023-07-31T07:51:49;98242.50;;;22.29;58.18
49949;BME280;35840;45.982;8.890;2023-07-31T07:54:16;98234.66;;;22.37;57.24
49949;BME280;35840;45.982;8.890;2023-07-31T07:56:47;98232.16;;;22.44;59.03
49949;BME280;35840;45.982;8.890;2023-07-31T07:59:14;98228.69;;;22.51;58.06
49949;BME280;35840;45.982;8.890;2023-07-31T08:01:41;98223.81;;;22.72;58.84
49949;BME280;35840;45.982;8.890;2023-07-31T08:04:08;98222.34;;;22.92;58.57
49949;BME280;35840;45.982;8.890;2023-07-31T08:06:34;98222.00;;;22.95;57.63
49949;BME280;35840;45.982;8.890;2023-07-31T08:09:01;98211.16;;;22.98;57.39
49949;BME280;35840;45.982;8.890;2023-07-31T08:11:33;98208.97;;;23.02;57.14
49949;BME280;35840;45.982;8.890;2023-07-31T08:14:00;98204.03;;;23.07;56.21
49949;BME280;35840;45.982;8.890;2023-07-31T08:16:27;98213.31;;;22.95;55.17
49949;BME280;35840;45.982;8.890;2023-07-31T08:18:54;98207.78;;;22.90;55.51
49949;BME280;35840;45.982;8.890;2023-07-31T08:21:21;98215.69;;;23.04;55.12
49949;BME280;35840;45.982;8.890;2023-07-31T08:23:48;98209.06;;;23.17;56.76
49949;BME280;35840;45.982;8.890;2023-07-31T08:26:16;98209.44;;;23.29;57.20
49949;BME280;35840;45.982;8.890;2023-07-31T08:28:43;98208.25;;;23.16;52.89
49949;BME280;35840;45.982;8.890;2023-07-31T08:31:10;98206.09;;;23.20;55.95
49949;BME280;35840;45.982;8.890;2023-07-31T08:33:38;98211.16;;;23.21;57.50
49949;BME280;35840;45.982;8.890;2023-07-31T08:36:06;98216.94;;;23.32;56.31
49949;BME280;35840;45.982;8.890;2023-07-31T08:38:33;98205.69;;;23.46;59.39
49949;BME280;35840;45.982;8.890;2023-07-31T08:41:00;98208.50;;;23.60;57.69
49949;BME280;35840;45.982;8.890;2023-07-31T08:43:27;98207.50;;;23.61;57.86
49949;BME280;35840;45.982;8.890;2023-07-31T08:45:54;98212.84;;;23.67;57.78
49949;BME280;35840;45.982;8.890;2023-07-31T08:48:22;98208.84;;;23.71;56.47
49949;BME280;35840;45.982;8.890;2023-07-31T08:50:51;98210.84;;;23.84;57.85
49949;BME280;35840;45.982;8.890;2023-07-31T08:53:18;98215.75;;;24.02;58.78
49949;BME280;35840;45.982;8.890;2023-07-31T08:55:46;98209.22;;;24.13;56.34
49949;BME280;35840;45.982;8.890;2023-07-31T08:58:13;98214.25;;;23.93;55.98
49949;BME280;35840;45.982;8.890;2023-07-31T09:00:41;98207.63;;;23.97;55.42
49949;BME280;35840;45.982;8.890;2023-07-31T09:03:14;98192.41;;;24.08;56.37
49949;BME280;35840;45.982;8.890;2023-07-31T09:05:44;98196.09;;;24.13;56.15
49949;BME280;35840;45.982;8.890;2023-07-31T09:08:12;98192.88;;;24.33;56.44
49949;BME280;35840;45.982;8.890;2023-07-31T09:10:43;98198.16;;;24.33;54.85
49949;BME280;35840;45.982;8.890;2023-07-31T09:13:15;98200.09;;;24.46;56.44
49949;BME280;35840;45.982;8.890;2023-07-31T09:15:45;98185.06;;;24.39;55.40
49949;BME280;35840;45.982;8.890;2023-07-31T09:18:12;98190.31;;;24.39;54.69
49949;BME280;35840;45.982;8.890;2023-07-31T09:20:41;98178.44;;;24.44;55.87
49949;BME280;35840;45.982;8.890;2023-07-31T09:23:12;98182.03;;;24.21;54.11
49949;BME280;35840;45.982;8.890;2023-07-31T09:25:43;98179.66;;;24.26;53.61
49949;BME280;35840;45.982;8.890;2023-07-31T09:28:11;98170.78;;;24.27;54.74
49949;BME280;35840;45.982;8.890;2023-07-31T09:31:05;98178.63;;;24.42;55.49
49949;BME280;35840;45.982;8.890;2023-07-31T09:33:32;98172.88;;;24.32;54.23
49949;BME280;35840;45.982;8.890;2023-07-31T09:36:00;98170.75;;;24.42;54.49
49949;BME280;35840;45.982;8.890;2023-07-31T09:38:27;98166.88;;;24.60;56.60
49949;BME280;35840;45.982;8.890;2023-07-31T09:40:55;98164.84;;;24.77;56.74
49949;BME280;35840;45.982;8.890;2023-07-31T09:43:22;98170.13;;;24.83;55.19
49949;BME280;35840;45.982;8.890;2023-07-31T09:45:54;98172.25;;;24.95;56.13
49949;BME280;35840;45.982;8.890;2023-07-31T09:48:23;98164.75;;;24.91;55.41
49949;BME280;35840;45.982;8.890;2023-07-31T09:50:53;98170.78;;;24.85;53.72
49949;BME280;35840;45.982;8.890;2023-07-31T09:53:28;98167.28;;;24.78;54.50
49949;BME280;35840;45.982;8.890;2023-07-31T09:55:58;98171.31;;;24.81;56.35
49949;BME280;35840;45.982;8.890;2023-07-31T09:58:27;98171.84;;;24.91;58.22
49949;BME280;35840;45.982;8.890;2023-07-31T10:00:57;98163.81;;;24.99;57.81
49949;BME280;35840;45.982;8.890;2023-07-31T10:03:26;98167.06;;;25.01;58.19
49949;BME280;35840;45.982;8.890;2023-07-31T10:05:55;98167.44;;;24.98;56.30
49949;BME280;35840;45.982;8.890;2023-07-31T10:08:27;98169.88;;;25.00;55.72
49949;BME280;35840;45.982;8.890;2023-07-31T10:11:00;98156.81;;;25.13;59.07
49949;BME280;35840;45.982;8.890;2023-07-31T10:13:30;98154.69;;;25.23;59.38
49949;BME280;35840;45.982;8.890;2023-07-31T10:15:59;98153.34;;;25.34;57.35
49949;BME280;35840;45.982;8.890;2023-07-31T10:18:28;98156.44;;;25.44;57.00
49949;BME280;35840;45.982;8.890;2023-07-31T10:20:56;98128.78;;;25.27;56.07
49949;BME280;35840;45.982;8.890;2023-07-31T10:23:24;98143.13;;;25.46;56.76
49949;BME280;35840;45.982;8.890;2023-07-31T10:25:53;98144.72;;;25.47;53.87
49949;BME280;35840;45.982;8.890;2023-07-31T10:28:21;98148.97;;;25.48;53.26
49949;BME280;35840;45.982;8.890;2023-07-31T10:30:49;98149.03;;;25.55;54.31
49949;BME280;35840;45.982;8.890;2023-07-31T10:33:17;98147.13;;;25.42;52.67
49949;BME280;35840;45.982;8.890;2023-07-31T10:35:47;98148.00;;;25.56;56.77
49949;BME280;35840;45.982;8.890;2023-07-31T10:38:15;98140.13;;;25.63;55.40
49949;BME280;35840;45.982;8.890;2023-07-31T10:40:42;98141.31;;;25.53;55.15
49949;BME280;35840;45.982;8.890;2023-07-31T10:43:23;98137.50;;;25.63;58.25
49949;BME280;35840;45.982;8.890;2023-07-31T10:45:51;98128.84;;;25.75;58.77
49949;BME280;35840;45.982;8.890;2023-07-31T10:48:17;98134.38;;;25.87;57.18
49949;BME280;35840;45.982;8.890;2023-07-31T10:50:49;98116.97;;;25.86;60.67
49949;BME280;35840;45.982;8.890;2023-07-31T10:53:29;98132.56;;;25.88;59.05
49949;BME280;35840;45.982;8.890;2023-07-31T10:56:01;98126.81;;;25.71;57.44
49949;BME280;35840;45.982;8.890;2023-07-31T10:58:28;98114.31;;;25.86;61.79
49949;BME280;35840;45.982;8.890;2023-07-31T11:00:56;98120.81;;;25.90;60.91
49949;BME280;35840;45.982;8.890;2023-07-31T11:03:40;98123.03;;;25.80;60.14
49949;BME280;35840;45.982;8.890;2023-07-31T11:06:08;98107.66;;;25.90;61.10
49949;BME280;35840;45.982;8.890;2023-07-31T11:08:41;98107.91;;;26.02;61.73
49949;BME280;35840;45.982;8.890;2023-07-31T11:11:11;98107.31;;;26.14;61.48
49949;BME280;35840;45.982;8.890;2023-07-31T11:13:44;98108.75;;;26.16;62.90
49949;BME280;35840;45.982;8.890;2023-07-31T11:16:12;98094.41;;;26.25;63.62
49949;BME280;35840;45.982;8.890;2023-07-31T11:18:41;98097.84;;;26.33;63.27
49949;BME280;35840;45.982;8.890;2023-07-31T11:21:12;98093.97;;;26.35;62.44
49949;BME280;35840;45.982;8.890;2023-07-31T11:23:40;98096.84;;;26.40;62.47
49949;BME280;35840;45.982;8.890;2023-07-31T11:26:07;98096.00;;;26.46;61.23
49949;BME280;35840;45.982;8.890;2023-07-31T11:28:34;98093.59;;;26.52;62.94
49949;BME280;35840;45.982;8.890;2023-07-31T11:31:02;98095.63;;;26.56;59.15
49949;BME280;35840;45.982;8.890;2023-07-31T11:33:30;98086.09;;;26.55;61.48
49949;BME280;35840;45.982;8.890;2023-07-31T11:35:57;98090.19;;;26.71;61.12
49949;BME280;35840;45.982;8.890;2023-07-31T11:38:28;98089.97;;;26.73;62.08
49949;BME280;35840;45.982;8.890;2023-07-31T11:40:57;98084.91;;;26.78;63.74
49949;BME280;35840;45.982;8.890;2023-07-31T11:43:24;98079.84;;;26.70;63.16
49949;BME280;35840;45.982;8.890;2023-07-31T11:45:53;98075.16;;;26.72;62.49
49949;BME280;35840;45.982;8.890;2023-07-31T11:50:49;98065.00;;;26.89;65.24
49949;BME280;35840;45.982;8.890;2023-07-31T11:53:19;98065.22;;;26.87;61.74
49949;BME280;35840;45.982;8.890;2023-07-31T11:55:47;98056.28;;;26.88;61.12
49949;BME280;35840;45.982;8.890;2023-07-31T11:58:15;98053.03;;;26.93;64.21
49949;BME280;35840;45.982;8.890;2023-07-31T12:00:43;98055.28;;;26.89;61.11
49949;BME280;35840;45.982;8.890;2023-07-31T12:03:10;98047.38;;;26.89;60.60
49949;BME280;35840;45.982;8.890;2023-07-31T12:05:37;98043.09;;;26.88;61.45
49949;BME280;35840;45.982;8.890;2023-07-31T12:08:11;98040.41;;;27.02;64.09
49949;BME280;35840;45.982;8.890;2023-07-31T12:10:38;98031.69;;;27.08;62.84
49949;BME280;35840;45.982;8.890;2023-07-31T12:13:11;98028.63;;;27.11;62.53
49949;BME280;35840;45.982;8.890;2023-07-31T12:15:45;98032.06;;;27.18;63.44
49949;BME280;35840;45.982;8.890;2023-07-31T12:18:13;98028.78;;;27.23;62.43
49949;BME280;35840;45.982;8.890;2023-07-31T12:23:17;98036.34;;;26.99;61.57
49949;BME280;35840;45.982;8.890;2023-07-31T12:25:45;98031.91;;;27.00;62.35
49949;BME280;35840;45.982;8.890;2023-07-31T12:28:11;98031.13;;;26.86;60.30
49949;BME280;35840;45.982;8.890;2023-07-31T12:30:40;98031.13;;;26.66;60.54
49949;BME280;35840;45.982;8.890;2023-07-31T12:33:13;98025.88;;;26.45;60.96
49949;BME280;35840;45.982;8.890;2023-07-31T12:35:45;98018.78;;;26.33;62.36
49949;BME280;35840;45.982;8.890;2023-07-31T12:38:13;98011.47;;;26.15;62.43
49949;BME280;35840;45.982;8.890;2023-07-31T12:40:41;98019.34;;;26.08;64.12
49949;BME280;35840;45.982;8.890;2023-07-31T12:43:08;98012.25;;;26.15;65.15
49949;BME280;35840;45.982;8.890;2023-07-31T12:45:35;97996.28;;;26.30;65.96
49949;BME280;35840;45.982;8.890;2023-07-31T12:48:02;98006.81;;;26.57;66.17
49949;BME280;35840;45.982;8.890;2023-07-31T12:50:29;98001.91;;;26.67;62.85
49949;BME280;35840;45.982;8.890;2023-07-31T12:52:56;98001.69;;;26.82;62.56
49949;BME280;35840;45.982;8.890;2023-07-31T12:55:24;97997.03;;;26.91;63.32
49949;BME280;35840;45.982;8.890;2023-07-31T12:57:50;97992.34;;;27.00;64.50
49949;BME280;35840;45.982;8.890;2023-07-31T13:00:18;97986.22;;;27.06;61.29
49949;BME280;35840;45.982;8.890;2023-07-31T13:02:45;97985.19;;;27.13;60.42
49949;BME280;35840;45.982;8.890;2023-07-31T13:05:11;97986.63;;;27.09;61.59
49949;BME280;35840;45.982;8.890;2023-07-31T13:07:40;97978.31;;;26.99;60.81
49949;BME280;35840;45.982;8.890;2023-07-31T13:10:07;97971.59;;;27.10;60.91
49949;BME280;35840;45.982;8.890;2023-07-31T13:12:34;97969.34;;;27.13;61.25
49949;BME280;35840;45.982;8.890;2023-07-31T13:15:01;97981.91;;;27.18;59.90